Time;durP1;ratioP1;P1;durP2;ratioP2;P2;SDS_P1;SDS_P2;PMS_P1;PMS_P2;Temp;Humidity;BMP_temperature;BMP_pressure;BME280_temperature;BME280_humidity;BME280_pressure;Samples;Min_cycle;Max_cycle;Signal;HPM_P1;HPM_P2
2022/11/08 00:01:32;;;;;;;75.93;43.20;;;9.90;99.90;;;;;;4163209;28;20083;-67
2022/11/08 00:03:33;;;;;;;81.20;44.33;;;9.90;99.90;;;;;;4160018;28;20274;-67
2022/11/08 00:14:53;;;;;;;76.57;43.90;;;9.80;99.90;;;;;;4152935;28;20091;-66
2022/11/08 00:16:54;;;;;;;89.00;48.93;;;9.80;99.90;;;;;;4149265;28;20045;-66
2022/11/08 00:18:56;;;;;;;86.57;48.43;;;9.80;99.90;;;;;;4160453;28;20030;-66
2022/11/08 00:21:01;;;;;;;87.73;50.33;;;9.90;99.90;;;;;;4159800;28;20060;-67
2022/11/08 00:23:03;;;;;;;82.20;46.87;;;9.90;99.90;;;;;;4150297;28;20030;-65
2022/11/08 00:25:05;;;;;;;84.20;49.07;;;9.90;99.90;;;;;;4153304;28;20033;-67
2022/11/08 00:27:10;;;;;;;78.03;45.97;;;9.90;99.90;;;;;;4149357;28;20030;-67
2022/11/08 00:29:11;;;;;;;79.77;46.17;;;9.90;99.90;;;;;;4148912;28;20060;-66
2022/11/08 00:31:14;;;;;;;85.97;46.17;;;9.90;99.90;;;;;;4151914;28;20042;-67
2022/11/08 00:33:15;;;;;;;85.23;44.77;;;10.00;99.90;;;;;;4148135;28;20045;-66
2022/11/08 00:35:16;;;;;;;78.87;44.13;;;10.00;99.90;;;;;;4145859;28;20042;-67
2022/11/08 00:37:19;;;;;;;78.63;46.63;;;10.00;99.90;;;;;;4152558;28;20075;-66
2022/11/08 00:39:20;;;;;;;84.10;46.57;;;10.10;99.90;;;;;;4146823;28;20037;-68
2022/11/08 00:41:21;;;;;;;78.80;43.93;;;10.10;99.90;;;;;;4149368;28;20104;-67
2022/11/08 00:43:22;;;;;;;79.07;44.00;;;10.10;99.90;;;;;;4146672;28;20042;-67
2022/11/08 00:45:23;;;;;;;78.97;44.93;;;10.10;99.90;;;;;;4152383;28;20087;-67
2022/11/08 00:47:24;;;;;;;75.87;44.50;;;10.20;99.90;;;;;;4161423;28;20037;-65
2022/11/08 00:49:26;;;;;;;79.43;44.27;;;10.20;99.90;;;;;;4158700;28;20449;-67
2022/11/08 00:51:27;;;;;;;83.33;45.73;;;10.20;99.90;;;;;;4159043;28;20092;-67
2022/11/08 00:53:28;;;;;;;79.23;44.60;;;10.20;99.90;;;;;;4148543;28;20445;-66
2022/11/08 00:55:29;;;;;;;77.77;45.30;;;10.20;99.90;;;;;;4146592;28;20037;-67
2022/11/08 00:57:30;;;;;;;80.50;45.20;;;10.10;99.90;;;;;;4153793;28;20493;-67
2022/11/08 00:59:32;;;;;;;77.37;46.13;;;10.10;99.90;;;;;;4162930;28;20067;-66
2022/11/08 01:01:33;;;;;;;72.63;44.40;;;10.00;99.90;;;;;;4151201;28;20065;-67
2022/11/08 01:03:34;;;;;;;87.83;47.63;;;10.00;99.90;;;;;;4146493;28;20099;-66
2022/11/08 01:05:38;;;;;;;79.50;46.50;;;10.00;99.90;;;;;;4145522;28;20030;-66
2022/11/08 01:07:39;;;;;;;76.93;45.13;;;10.00;99.90;;;;;;4137060;28;20042;-66
2022/11/08 01:09:40;;;;;;;82.97;46.33;;;10.00;99.90;;;;;;4159053;28;20081;-67
2022/11/08 01:11:45;;;;;;;80.47;45.87;;;10.00;99.90;;;;;;4153672;28;20450;-66
2022/11/08 01:13:47;;;;;;;82.97;46.03;;;10.00;99.90;;;;;;4145093;28;20099;-67
2022/11/08 01:15:48;;;;;;;84.43;47.27;;;9.90;99.90;;;;;;4147384;28;20088;-66
2022/11/08 01:17:49;;;;;;;75.90;46.07;;;9.90;99.90;;;;;;4154809;28;20033;-65
2022/11/08 01:19:50;;;;;;;81.13;45.93;;;9.90;99.90;;;;;;4163753;28;20025;-66
2022/11/08 01:21:52;;;;;;;82.00;44.67;;;9.90;99.90;;;;;;4160295;28;20083;-64
2022/11/08 01:23:53;;;;;;;81.23;46.43;;;9.90;99.90;;;;;;4163230;28;20627;-65
2022/11/08 01:25:54;;;;;;;80.33;47.47;;;10.00;99.90;;;;;;4147937;28;20417;-65
2022/11/08 01:27:56;;;;;;;87.50;47.90;;;9.90;99.90;;;;;;4146022;28;20038;-67
2022/11/08 01:29:57;;;;;;;86.30;47.63;;;9.90;99.90;;;;;;4145727;28;20042;-65
2022/11/08 01:31:58;;;;;;;82.53;48.37;;;10.00;99.90;;;;;;4146286;28;20437;-65
2022/11/08 01:34:00;;;;;;;80.00;45.60;;;9.90;99.90;;;;;;4145686;28;20459;-65
2022/11/08 01:36:01;;;;;;;86.27;47.17;;;9.90;99.90;;;;;;4145800;28;20095;-64
2022/11/08 01:38:04;;;;;;;90.77;45.83;;;9.90;99.90;;;;;;4146748;28;20030;-64
2022/11/08 01:40:06;;;;;;;85.37;46.60;;;9.90;99.90;;;;;;4145757;28;20367;-67
2022/11/08 01:42:07;;;;;;;86.47;46.87;;;9.90;99.90;;;;;;4161489;28;20095;-66
2022/11/08 01:44:15;;;;;;;80.93;47.23;;;9.90;99.90;;;;;;4161229;28;20046;-66
2022/11/08 01:46:33;;;;;;;86.27;47.17;;;9.90;99.90;;;;;;4161984;28;20053;-66
2022/11/08 01:48:38;;;;;;;84.40;45.27;;;9.90;99.90;;;;;;4161849;28;20037;-66
2022/11/08 01:50:39;;;;;;;87.43;46.57;;;9.90;99.90;;;;;;4161403;28;20420;-66
2022/11/08 01:52:49;;;;;;;74.63;43.80;;;9.90;99.90;;;;;;4160945;28;20064;-67
2022/11/08 01:54:50;;;;;;;84.20;45.10;;;9.80;99.90;;;;;;4146631;28;20084;-66
2022/11/08 01:56:52;;;;;;;86.03;45.00;;;9.80;99.90;;;;;;4146596;28;20471;-66
2022/11/08 01:58:55;;;;;;;77.70;43.13;;;9.80;99.90;;;;;;4146008;28;20093;-66
2022/11/08 02:00:58;;;;;;;81.67;44.60;;;9.90;99.90;;;;;;4145768;28;20394;-66
2022/11/08 02:03:00;;;;;;;77.90;43.07;;;9.90;99.90;;;;;;4158443;28;20087;-65
2022/11/08 02:05:05;;;;;;;78.93;45.47;;;9.90;99.90;;;;;;4151418;28;20506;-66
2022/11/08 02:07:08;;;;;;;80.07;43.57;;;9.90;99.90;;;;;;4158360;28;20087;-65
2022/11/08 02:09:12;;;;;;;81.33;44.60;;;9.90;99.90;;;;;;4155541;28;20666;-65
2022/11/08 02:11:17;;;;;;;75.97;43.30;;;9.90;99.90;;;;;;4147886;28;20034;-66
2022/11/08 02:13:21;;;;;;;77.13;43.37;;;10.00;99.90;;;;;;4150482;28;20026;-65
2022/11/08 02:15:25;;;;;;;72.53;42.83;;;9.90;99.90;;;;;;4145554;28;20054;-65
2022/11/08 02:17:26;;;;;;;77.47;42.97;;;10.00;99.90;;;;;;4144834;28;20470;-65
2022/11/08 02:19:44;;;;;;;78.60;43.70;;;10.00;99.90;;;;;;4144851;28;20034;-65
2022/11/08 02:21:57;;;;;;;71.17;41.53;;;9.90;99.90;;;;;;4151133;28;20025;-64
2022/11/08 02:24:00;;;;;;;79.87;43.33;;;10.00;99.90;;;;;;4147311;28;20080;-65
2022/11/08 02:26:01;;;;;;;77.90;44.70;;;10.00;99.90;;;;;;4161171;28;20482;-66
2022/11/08 02:28:02;;;;;;;81.03;44.57;;;10.00;99.90;;;;;;4146309;28;20068;-66
2022/11/08 02:30:04;;;;;;;75.30;43.10;;;9.90;99.90;;;;;;4147956;28;20092;-66
2022/11/08 02:32:06;;;;;;;74.30;43.30;;;9.90;99.90;;;;;;4158826;28;20084;-65
2022/11/08 02:34:07;;;;;;;80.67;46.60;;;9.90;99.90;;;;;;4147862;28;20159;-66
2022/11/08 02:36:13;;;;;;;74.73;41.43;;;9.90;99.90;;;;;;4144083;28;20441;-66
2022/11/08 02:38:14;;;;;;;77.53;43.53;;;9.90;99.90;;;;;;4145619;28;20540;-66
2022/11/08 02:40:15;;;;;;;77.20;44.80;;;9.90;99.90;;;;;;4148091;28;20022;-66
2022/11/08 02:42:19;;;;;;;80.57;45.50;;;9.90;99.90;;;;;;4160403;28;20029;-66
2022/11/08 02:44:20;;;;;;;77.73;44.33;;;9.90;99.90;;;;;;4160932;28;20099;-66
2022/11/08 02:46:21;;;;;;;80.00;46.23;;;9.90;99.90;;;;;;4153836;28;20494;-67
2022/11/08 02:48:22;;;;;;;86.77;45.47;;;9.90;99.90;;;;;;4144572;28;20034;-66
2022/11/08 02:50:23;;;;;;;86.07;46.07;;;9.90;99.90;;;;;;4145617;28;20037;-66
2022/11/08 02:52:25;;;;;;;84.90;46.67;;;9.90;99.90;;;;;;4153696;28;20469;-66
2022/11/08 02:54:27;;;;;;;84.63;47.90;;;9.90;99.90;;;;;;4156773;28;20096;-66
2022/11/08 02:56:28;;;;;;;81.07;45.13;;;9.90;99.90;;;;;;4145894;28;20816;-66
2022/11/08 02:58:29;;;;;;;76.20;44.00;;;9.90;99.90;;;;;;4154541;28;20494;-67
2022/11/08 03:00:31;;;;;;;84.63;47.20;;;10.00;99.90;;;;;;4161271;28;20095;-67
2022/11/08 03:02:32;;;;;;;81.27;43.77;;;10.00;99.90;;;;;;4160516;28;20033;-66
2022/11/08 03:04:33;;;;;;;73.13;42.10;;;10.00;99.90;;;;;;4154238;28;20483;-67
2022/11/08 03:06:34;;;;;;;80.00;43.13;;;10.00;99.90;;;;;;4153721;28;20080;-66
2022/11/08 03:08:35;;;;;;;75.87;41.73;;;10.10;99.90;;;;;;4161074;28;20033;-66
2022/11/08 03:10:37;;;;;;;73.67;39.73;;;10.10;99.90;;;;;;4153567;28;20033;-65
2022/11/08 03:12:38;;;;;;;81.43;44.80;;;10.10;99.90;;;;;;4159932;28;20119;-67
2022/11/08 03:14:39;;;;;;;75.23;43.10;;;10.10;99.90;;;;;;4144332;28;20080;-66
2022/11/08 03:16:40;;;;;;;92.30;45.53;;;10.10;99.90;;;;;;4144549;28;20395;-67
2022/11/08 03:18:42;;;;;;;78.27;43.83;;;10.10;99.90;;;;;;4143500;28;20092;-67
2022/11/08 03:20:45;;;;;;;78.07;45.53;;;10.10;99.90;;;;;;4144318;28;20095;-66
2022/11/08 03:22:46;;;;;;;80.60;41.37;;;10.10;99.90;;;;;;4155917;28;20498;-66
2022/11/08 03:24:47;;;;;;;70.87;40.67;;;10.10;99.90;;;;;;4148706;28;20055;-66
2022/11/08 03:26:48;;;;;;;75.20;39.33;;;10.20;99.90;;;;;;4158206;28;20045;-67
2022/11/08 03:28:50;;;;;;;74.43;39.80;;;10.10;99.90;;;;;;4144925;28;20030;-66
2022/11/08 03:30:51;;;;;;;76.43;41.20;;;10.20;99.90;;;;;;4156434;28;20376;-67
2022/11/08 03:32:53;;;;;;;74.67;40.93;;;10.20;99.90;;;;;;4144627;28;20038;-66
2022/11/08 03:34:54;;;;;;;70.07;39.03;;;10.10;99.90;;;;;;4148648;28;20033;-67
2022/11/08 03:36:55;;;;;;;71.17;38.93;;;10.10;99.90;;;;;;4159013;28;20103;-66
2022/11/08 03:38:56;;;;;;;75.87;40.53;;;10.20;99.90;;;;;;4149853;28;20874;-65
2022/11/08 03:40:57;;;;;;;74.47;39.43;;;10.10;99.90;;;;;;4143934;28;20490;-65
2022/11/08 03:42:58;;;;;;;65.10;36.87;;;10.10;99.90;;;;;;4155810;28;20041;-65
2022/11/08 03:44:59;;;;;;;73.37;39.87;;;10.10;99.90;;;;;;4160252;28;20030;-65
2022/11/08 03:47:01;;;;;;;64.87;36.37;;;10.20;99.90;;;;;;4159094;28;20034;-66
2022/11/08 03:49:02;;;;;;;74.10;38.47;;;10.10;99.90;;;;;;4157858;28;20131;-65
2022/11/08 03:51:03;;;;;;;70.40;37.60;;;10.20;99.90;;;;;;4161150;28;20421;-66
2022/11/08 03:53:04;;;;;;;71.67;38.97;;;10.10;99.90;;;;;;4149209;28;20367;-64
2022/11/08 03:55:06;;;;;;;69.77;37.50;;;10.10;99.90;;;;;;4144857;28;20107;-65
2022/11/08 03:57:07;;;;;;;62.67;36.47;;;10.10;99.90;;;;;;4145101;28;20092;-65
2022/11/08 03:59:10;;;;;;;70.60;37.20;;;10.10;99.90;;;;;;4166043;28;20028;-66
2022/11/08 04:01:11;;;;;;;62.00;34.33;;;10.10;99.90;;;;;;4164314;28;20049;-66
2022/11/08 04:03:12;;;;;;;64.47;36.50;;;10.20;99.90;;;;;;4163285;28;20037;-65
2022/11/08 04:05:14;;;;;;;62.20;36.07;;;10.20;99.90;;;;;;4153645;28;20041;-65
2022/11/08 04:07:15;;;;;;;58.57;32.57;;;10.20;99.90;;;;;;4147219;28;20034;-66
2022/11/08 04:09:16;;;;;;;62.97;35.53;;;10.20;99.90;;;;;;4151457;28;20042;-65
2022/11/08 04:15:57;;;;;;;55.37;33.23;;;10.20;99.90;;;;;;4152238;28;20076;-65
2022/11/08 04:22:37;;;;;;;63.47;33.87;;;10.20;99.90;;;;;;4144084;28;20077;-63
2022/11/08 04:24:38;;;;;;;57.83;33.10;;;10.20;99.90;;;;;;4155124;28;20815;-66
2022/11/08 04:26:40;;;;;;;66.03;35.60;;;10.10;99.90;;;;;;4148359;28;20049;-65
2022/11/08 04:28:42;;;;;;;55.07;34.60;;;10.20;99.90;;;;;;4156795;28;20049;-65
2022/11/08 04:30:43;;;;;;;53.90;33.30;;;10.10;99.90;;;;;;4164056;28;20034;-65
2022/11/08 04:32:44;;;;;;;54.57;33.07;;;10.10;99.90;;;;;;4160393;28;20045;-66
2022/11/08 04:34:45;;;;;;;62.30;34.30;;;10.10;99.90;;;;;;4155204;28;20095;-65
2022/11/08 04:36:46;;;;;;;61.27;34.10;;;10.20;99.90;;;;;;4155165;28;20046;-65
2022/11/08 04:38:49;;;;;;;57.50;31.87;;;10.20;99.90;;;;;;4160289;28;20854;-66
2022/11/08 04:40:50;;;;;;;56.13;31.30;;;10.10;99.90;;;;;;4160418;28;20076;-66
2022/11/08 04:42:51;;;;;;;57.27;31.10;;;10.20;99.90;;;;;;4155877;28;20099;-65
2022/11/08 04:44:52;;;;;;;54.83;30.97;;;10.20;99.90;;;;;;4149822;28;20026;-65
2022/11/08 04:46:53;;;;;;;47.23;29.50;;;10.20;99.90;;;;;;4145608;28;20407;-65
2022/11/08 04:48:57;;;;;;;53.33;30.83;;;10.20;99.90;;;;;;4158918;28;20045;-66
2022/11/08 04:51:13;;;;;;;49.73;28.03;;;10.20;99.90;;;;;;4146443;28;20038;-64
2022/11/08 04:53:14;;;;;;;48.20;29.00;;;10.20;99.90;;;;;;4148918;28;20084;-64
2022/11/08 04:55:15;;;;;;;48.30;29.47;;;10.20;99.90;;;;;;4153385;28;20037;-65
2022/11/08 04:57:16;;;;;;;53.03;29.97;;;10.20;99.90;;;;;;4154884;28;20165;-66
2022/11/08 04:59:18;;;;;;;51.00;29.60;;;10.20;99.90;;;;;;4151298;28;20037;-66
2022/11/08 05:01:22;;;;;;;49.27;28.60;;;10.20;99.90;;;;;;4156510;28;20079;-65
2022/11/08 05:03:23;;;;;;;49.77;27.93;;;10.20;99.90;;;;;;4149290;28;20544;-65
2022/11/08 05:05:24;;;;;;;52.60;28.77;;;10.20;99.90;;;;;;4161315;28;20029;-66
2022/11/08 05:07:27;;;;;;;52.47;27.80;;;10.20;99.90;;;;;;4148279;28;20030;-66
2022/11/08 05:09:29;;;;;;;46.87;27.03;;;10.20;99.90;;;;;;4153537;28;20085;-65
2022/11/08 05:11:30;;;;;;;47.30;27.60;;;10.20;99.90;;;;;;4158971;28;20045;-67
2022/11/08 05:13:32;;;;;;;46.77;26.33;;;10.20;99.90;;;;;;4150265;28;20155;-66
2022/11/08 05:15:34;;;;;;;44.13;24.83;;;10.20;99.90;;;;;;4151867;28;20079;-66
2022/11/08 05:17:36;;;;;;;41.30;25.10;;;10.10;99.90;;;;;;4148256;28;20099;-65
2022/11/08 05:24:17;;;;;;;47.17;26.60;;;10.10;99.90;;;;;;4150228;28;20441;-65
2022/11/08 05:26:19;;;;;;;48.63;27.13;;;10.10;99.90;;;;;;4157209;28;20363;-65
2022/11/08 05:28:21;;;;;;;49.17;27.50;;;10.10;99.90;;;;;;4149389;28;20161;-66
2022/11/08 05:30:22;;;;;;;49.90;28.17;;;10.10;99.90;;;;;;4151344;28;20030;-66
2022/11/08 05:32:23;;;;;;;48.10;28.30;;;10.10;99.90;;;;;;4153685;28;20021;-65
2022/11/08 05:34:24;;;;;;;55.13;29.17;;;10.10;99.90;;;;;;4156079;28;20041;-66
2022/11/08 05:36:26;;;;;;;46.10;27.33;;;10.10;99.90;;;;;;4162508;28;20846;-66
2022/11/08 05:38:29;;;;;;;50.20;29.00;;;10.10;99.90;;;;;;4159552;28;20442;-66
2022/11/08 05:40:31;;;;;;;56.03;28.97;;;10.10;99.90;;;;;;4162245;28;20029;-66
2022/11/08 05:42:32;;;;;;;55.37;29.93;;;10.10;99.90;;;;;;4153522;28;20075;-66
2022/11/08 05:44:33;;;;;;;52.63;29.27;;;10.10;99.90;;;;;;4162303;28;20042;-66
2022/11/08 05:46:35;;;;;;;49.47;28.40;;;10.00;99.90;;;;;;4159983;28;20115;-65
2022/11/08 05:48:36;;;;;;;50.50;28.07;;;10.10;99.90;;;;;;4162912;28;20100;-66
2022/11/08 05:50:37;;;;;;;46.17;26.97;;;10.10;99.90;;;;;;4147287;28;20033;-66
2022/11/08 05:52:39;;;;;;;43.33;23.37;;;10.10;99.90;;;;;;4145859;28;20041;-66
2022/11/08 05:54:40;;;;;;;41.40;23.13;;;10.10;99.90;;;;;;4127280;28;20212;-66
2022/11/08 05:56:41;;;;;;;47.63;25.03;;;10.10;99.90;;;;;;4145470;28;20499;-67
2022/11/08 05:58:43;;;;;;;45.27;23.80;;;10.10;99.90;;;;;;4127136;28;20035;-65
2022/11/08 06:00:44;;;;;;;54.13;32.13;;;10.10;99.90;;;;;;4147686;28;20030;-66
2022/11/08 06:02:45;;;;;;;50.70;28.70;;;10.20;99.90;;;;;;4155361;28;20103;-70
2022/11/08 06:04:46;;;;;;;54.17;31.20;;;10.10;99.90;;;;;;4162102;28;20079;-68
2022/11/08 06:06:49;;;;;;;52.63;31.03;;;10.20;99.90;;;;;;4161079;28;20924;-67
2022/11/08 06:08:50;;;;;;;52.00;28.00;;;10.20;99.90;;;;;;4161772;28;20075;-66
2022/11/08 06:10:51;;;;;;;39.43;22.50;;;10.20;99.90;;;;;;4161812;28;20026;-66
2022/11/08 06:12:58;;;;;;;42.67;22.53;;;10.20;99.90;;;;;;4160262;28;20103;-64
2022/11/08 06:14:59;;;;;;;38.37;21.53;;;10.20;99.90;;;;;;4160127;28;20045;-67
2022/11/08 06:17:00;;;;;;;40.47;24.27;;;10.20;99.90;;;;;;4161311;28;20087;-67
2022/11/08 06:19:02;;;;;;;43.33;23.50;;;10.30;99.90;;;;;;4160746;28;20038;-65
2022/11/08 06:21:04;;;;;;;49.87;26.03;;;10.30;99.90;;;;;;4160505;28;20033;-66
2022/11/08 06:23:06;;;;;;;41.80;23.87;;;10.30;99.90;;;;;;4162269;28;20099;-66
2022/11/08 06:25:07;;;;;;;39.50;24.17;;;10.40;99.90;;;;;;4160850;28;20083;-66
2022/11/08 06:27:08;;;;;;;39.23;21.50;;;10.40;99.90;;;;;;4162334;28;20577;-66
2022/11/08 06:29:09;;;;;;;38.63;22.00;;;10.40;99.90;;;;;;4161168;28;20018;-66
2022/11/08 06:31:10;;;;;;;34.47;19.23;;;10.50;99.90;;;;;;4161216;28;20038;-66
2022/11/08 06:33:12;;;;;;;36.97;19.93;;;10.50;99.90;;;;;;4160136;28;20073;-65
2022/11/08 06:35:13;;;;;;;40.30;23.47;;;10.60;99.90;;;;;;4162375;28;20022;-65
2022/11/08 06:37:14;;;;;;;25.40;13.67;;;10.50;99.90;;;;;;4160769;28;20108;-65
2022/11/08 06:39:16;;;;;;;22.40;11.87;;;10.50;99.90;;;;;;4160917;28;20041;-66
2022/11/08 06:41:18;;;;;;;22.07;12.40;;;10.50;99.90;;;;;;4160762;28;20359;-65
2022/11/08 06:43:19;;;;;;;23.40;12.43;;;10.50;99.90;;;;;;4160470;28;20497;-65
2022/11/08 06:45:20;;;;;;;21.17;13.40;;;10.50;99.90;;;;;;4160979;28;20033;-65
2022/11/08 06:47:21;;;;;;;26.67;13.97;;;10.50;99.90;;;;;;4159761;28;20041;-65
2022/11/08 06:49:23;;;;;;;23.23;12.77;;;10.60;99.90;;;;;;4161046;28;20042;-66
2022/11/08 06:51:24;;;;;;;26.93;13.90;;;10.60;99.90;;;;;;4159826;28;20075;-66
2022/11/08 06:53:25;;;;;;;25.07;13.77;;;10.70;99.90;;;;;;4160714;28;20099;-66
2022/11/08 06:55:27;;;;;;;23.33;13.20;;;10.70;99.90;;;;;;4159764;28;20038;-66
2022/11/08 06:57:28;;;;;;;24.87;13.43;;;10.80;99.90;;;;;;4160907;28;20186;-66
2022/11/08 06:59:29;;;;;;;22.27;12.80;;;10.80;99.90;;;;;;4159850;28;20041;-65
2022/11/08 07:01:30;;;;;;;24.47;13.77;;;10.70;99.90;;;;;;4160424;28;20053;-66
2022/11/08 07:03:32;;;;;;;23.50;12.90;;;10.70;99.90;;;;;;4159822;28;20037;-65
2022/11/08 07:05:34;;;;;;;29.93;15.63;;;10.70;99.90;;;;;;4161472;28;20041;-66
2022/11/08 07:07:35;;;;;;;26.10;15.40;;;10.80;99.90;;;;;;4159949;28;20847;-66
2022/11/08 07:09:36;;;;;;;23.60;12.87;;;10.70;99.90;;;;;;4161394;28;20524;-66
2022/11/08 07:11:37;;;;;;;21.40;13.30;;;10.70;99.90;;;;;;4160403;28;20038;-66
2022/11/08 07:13:38;;;;;;;21.33;10.90;;;10.70;99.90;;;;;;4160978;28;20063;-66
2022/11/08 07:15:40;;;;;;;20.63;12.27;;;10.70;99.90;;;;;;4161189;28;20524;-67
2022/11/08 07:17:41;;;;;;;28.20;14.97;;;10.70;99.90;;;;;;4159550;28;20112;-65
2022/11/08 07:19:43;;;;;;;27.53;14.77;;;10.80;99.90;;;;;;4161485;28;20037;-66
2022/11/08 07:21:44;;;;;;;23.77;14.30;;;10.70;99.90;;;;;;4160428;28;20021;-67
2022/11/08 07:23:47;;;;;;;24.87;14.83;;;10.70;99.90;;;;;;4161486;28;20442;-65
2022/11/08 07:25:48;;;;;;;24.00;14.07;;;10.80;99.90;;;;;;4160258;28;20088;-66
2022/11/08 07:27:49;;;;;;;28.63;17.27;;;10.70;99.90;;;;;;4161086;28;20037;-65
2022/11/08 07:29:50;;;;;;;24.63;14.27;;;10.70;99.90;;;;;;4159204;28;20091;-65
2022/11/08 07:31:51;;;;;;;24.50;12.33;;;10.70;99.90;;;;;;4142651;28;20548;-65
2022/11/08 07:33:53;;;;;;;22.80;13.47;;;10.80;99.90;;;;;;4160110;28;20033;-63
2022/11/08 07:35:54;;;;;;;24.00;13.37;;;10.80;99.90;;;;;;4160922;28;20041;-65
2022/11/08 07:37:56;;;;;;;20.90;12.93;;;10.80;99.90;;;;;;4160164;28;20105;-65
2022/11/08 07:39:57;;;;;;;18.77;11.43;;;10.90;99.90;;;;;;4160896;28;20030;-63
2022/11/08 07:41:58;;;;;;;17.80;11.23;;;10.90;99.90;;;;;;4159587;28;20030;-65
2022/11/08 07:43:59;;;;;;;19.23;12.13;;;10.90;99.90;;;;;;4160424;28;20107;-64
2022/11/08 07:46:01;;;;;;;20.43;11.30;;;10.90;99.90;;;;;;4159807;28;20049;-67
2022/11/08 07:48:05;;;;;;;23.47;12.40;;;10.90;99.90;;;;;;4159373;28;20088;-66
2022/11/08 07:50:06;;;;;;;21.97;12.33;;;11.00;99.90;;;;;;4160542;28;20053;-64
2022/11/08 07:52:07;;;;;;;20.07;10.73;;;11.00;99.90;;;;;;4159112;28;20091;-65
2022/11/08 07:54:08;;;;;;;18.17;10.93;;;11.00;99.90;;;;;;4161067;28;20030;-65
2022/11/08 07:56:10;;;;;;;23.07;12.40;;;11.10;99.90;;;;;;4160065;28;20072;-67
2022/11/08 07:58:11;;;;;;;20.93;11.60;;;11.20;99.90;;;;;;4161030;28;20041;-66
2022/11/08 08:00:13;;;;;;;16.10;10.70;;;11.20;99.90;;;;;;4159401;28;20098;-65
2022/11/08 08:02:14;;;;;;;24.07;12.27;;;11.30;99.90;;;;;;4161001;28;20075;-64
2022/11/08 08:04:16;;;;;;;21.20;11.80;;;11.30;99.90;;;;;;4158851;28;20072;-65
2022/11/08 08:06:17;;;;;;;19.83;11.37;;;11.30;99.90;;;;;;4161357;28;20433;-65
2022/11/08 08:08:18;;;;;;;18.83;11.73;;;11.30;99.90;;;;;;4159944;28;20095;-65
2022/11/08 08:10:19;;;;;;;23.23;12.43;;;11.20;99.90;;;;;;4160882;28;20041;-66
2022/11/08 08:12:21;;;;;;;19.20;11.90;;;11.30;99.90;;;;;;4159088;28;20025;-66
2022/11/08 08:14:22;;;;;;;23.00;12.67;;;11.30;99.90;;;;;;4159433;28;20041;-66
2022/11/08 08:16:23;;;;;;;25.83;14.43;;;11.30;99.90;;;;;;4159718;28;20038;-66
2022/11/08 08:18:24;;;;;;;21.13;12.60;;;11.40;99.90;;;;;;4160320;28;20508;-66
2022/11/08 08:20:26;;;;;;;21.83;13.00;;;11.40;99.90;;;;;;4160032;28;20038;-65
2022/11/08 08:22:28;;;;;;;22.17;12.50;;;11.40;99.90;;;;;;4159820;28;20087;-65
2022/11/08 08:24:29;;;;;;;17.20;11.53;;;11.30;99.90;;;;;;4160719;28;20064;-65
2022/11/08 08:26:30;;;;;;;21.20;11.63;;;11.30;99.90;;;;;;4159832;28;20037;-66
2022/11/08 08:28:32;;;;;;;18.33;11.50;;;11.30;99.90;;;;;;4160910;28;20041;-65
2022/11/08 08:30:33;;;;;;;25.87;13.67;;;11.30;99.90;;;;;;4159531;28;20083;-64
2022/11/08 08:32:34;;;;;;;19.70;12.90;;;11.30;99.90;;;;;;4160597;28;20072;-65
2022/11/08 08:34:35;;;;;;;19.10;11.60;;;11.30;99.90;;;;;;4159162;28;20037;-65
2022/11/08 08:36:36;;;;;;;21.50;12.60;;;11.30;99.90;;;;;;4161226;28;20079;-66
2022/11/08 08:38:38;;;;;;;19.27;11.67;;;11.30;99.90;;;;;;4159606;28;20041;-66
2022/11/08 08:40:39;;;;;;;19.87;11.63;;;11.30;99.90;;;;;;4159729;28;20082;-66
2022/11/08 08:42:40;;;;;;;20.40;12.47;;;11.40;99.90;;;;;;4158979;28;20428;-65
2022/11/08 08:44:41;;;;;;;22.50;12.60;;;11.40;99.90;;;;;;4162863;28;20037;-66
2022/11/08 08:46:43;;;;;;;22.93;12.80;;;11.40;99.90;;;;;;4162044;28;20041;-65
2022/11/08 08:48:44;;;;;;;22.33;13.23;;;11.40;99.90;;;;;;4162970;28;20049;-64
2022/11/08 08:50:46;;;;;;;21.20;12.93;;;11.50;99.90;;;;;;4162818;28;20448;-66
2022/11/08 08:52:47;;;;;;;22.80;12.53;;;11.50;99.90;;;;;;4162051;28;20091;-66
2022/11/08 08:54:48;;;;;;;20.73;12.23;;;11.50;99.90;;;;;;4163749;28;20025;-66
2022/11/08 08:56:51;;;;;;;23.63;12.87;;;11.40;99.90;;;;;;4144015;28;20038;-66
2022/11/08 08:58:52;;;;;;;20.80;12.87;;;11.40;99.90;;;;;;4163437;28;20029;-65
2022/11/08 09:00:53;;;;;;;22.67;13.13;;;11.50;99.90;;;;;;4162259;28;20034;-64
2022/11/08 09:02:54;;;;;;;25.17;12.87;;;11.50;99.90;;;;;;4162163;28;20092;-65
2022/11/08 09:04:55;;;;;;;19.03;12.37;;;11.60;99.90;;;;;;4162154;28;20087;-66
2022/11/08 09:06:56;;;;;;;26.50;13.27;;;11.60;99.90;;;;;;4163596;28;20041;-66
2022/11/08 09:08:57;;;;;;;20.57;13.43;;;11.60;99.90;;;;;;4162048;28;20022;-66
2022/11/08 09:11:00;;;;;;;26.50;12.90;;;11.60;99.90;;;;;;4161993;28;20034;-66
2022/11/08 09:13:02;;;;;;;24.07;14.77;;;11.60;99.90;;;;;;4161909;28;20037;-66
2022/11/08 09:15:04;;;;;;;24.73;14.70;;;11.60;99.90;;;;;;4162152;28;20111;-66
2022/11/08 09:17:05;;;;;;;28.03;15.30;;;11.70;99.90;;;;;;4161747;28;20091;-66
2022/11/08 09:19:06;;;;;;;27.03;14.93;;;11.70;99.90;;;;;;4162247;28;20908;-67
2022/11/08 09:21:08;;;;;;;25.03;15.50;;;11.70;99.90;;;;;;4161578;28;20025;-66
2022/11/08 09:23:10;;;;;;;24.37;14.13;;;11.70;99.90;;;;;;4161343;28;20488;-66
2022/11/08 09:25:11;;;;;;;24.33;13.90;;;11.80;99.90;;;;;;4162453;28;20029;-66
2022/11/08 09:27:12;;;;;;;21.93;14.57;;;11.80;99.90;;;;;;4161726;28;20429;-65
2022/11/08 09:29:14;;;;;;;23.17;14.83;;;11.80;99.90;;;;;;4162743;28;20091;-66
2022/11/08 09:31:15;;;;;;;22.50;13.67;;;11.90;99.90;;;;;;4160695;28;20083;-65
2022/11/08 09:33:16;;;;;;;20.73;13.50;;;11.90;99.90;;;;;;4161956;28;20095;-65
2022/11/08 09:35:17;;;;;;;24.63;14.07;;;11.90;99.90;;;;;;4161726;28;20017;-66
2022/11/08 09:37:18;;;;;;;21.57;12.77;;;11.90;99.90;;;;;;4163198;28;20030;-64
2022/11/08 09:39:20;;;;;;;31.43;14.00;;;11.90;99.90;;;;;;4161720;28;20021;-65
2022/11/08 09:41:29;;;;;;;20.53;13.60;;;11.90;99.90;;;;;;4162480;28;20080;-65
2022/11/08 09:43:52;;;;;;;22.60;12.13;;;12.00;99.90;;;;;;4161379;28;21404;-65
2022/11/08 09:45:56;;;;;;;20.30;11.90;;;12.00;99.90;;;;;;4144528;28;20477;-64
2022/11/08 09:48:01;;;;;;;23.07;12.33;;;12.00;99.90;;;;;;4161448;28;20037;-65
2022/11/08 09:50:21;;;;;;;18.70;11.53;;;12.00;99.90;;;;;;4162308;28;20095;-64
2022/11/08 09:52:27;;;;;;;19.83;11.65;;;12.00;99.90;;;;;;4161591;28;20033;-67
2022/11/08 09:54:41;;;;;;;18.07;11.27;;;12.00;99.90;;;;;;4162097;28;20127;-65
2022/11/08 09:56:44;;;;;;;18.37;10.97;;;12.00;99.90;;;;;;4159956;28;20448;-65
2022/11/08 09:59:11;;;;;;;19.47;11.60;;;12.00;99.90;;;;;;4162383;28;20385;-66
2022/11/08 10:01:12;;;;;;;23.53;13.17;;;12.10;99.90;;;;;;4161110;28;20033;-67
2022/11/08 10:03:16;;;;;;;24.87;11.40;;;12.10;99.90;;;;;;4144285;28;20037;-64
2022/11/08 10:05:18;;;;;;;22.50;11.67;;;12.10;99.90;;;;;;4160502;28;20092;-65
2022/11/08 10:07:32;;;;;;;18.30;11.57;;;12.10;99.90;;;;;;4162378;28;20075;-65
2022/11/08 10:10:11;;;;;;;19.70;11.47;;;12.10;99.90;;;;;;4160826;28;20381;-64
2022/11/08 10:12:32;;;;;;;20.10;11.20;;;12.10;99.90;;;;;;4162089;28;20071;-67
2022/11/08 10:14:47;;;;;;;21.67;12.57;;;12.10;99.90;;;;;;4160989;28;20469;-65
2022/11/08 10:17:04;;;;;;;23.67;12.30;;;12.00;99.90;;;;;;4161363;28;20041;-65
2022/11/08 10:19:34;;;;;;;21.30;12.97;;;12.10;99.90;;;;;;4142663;28;20053;-64
2022/11/08 10:21:53;;;;;;;22.33;11.52;;;12.00;99.90;;;;;;4161465;28;20072;-66
2022/11/08 10:24:25;;;;;;;24.83;12.35;;;12.10;99.90;;;;;;4161217;28;20429;-66
2022/11/08 10:26:34;;;;;;;18.10;11.33;;;12.00;99.90;;;;;;4160876;28;20091;-64
2022/11/08 10:28:59;;;;;;;23.10;11.97;;;12.00;99.90;;;;;;4161835;28;20481;-64
2022/11/08 10:31:01;;;;;;;20.70;12.50;;;12.00;99.90;;;;;;4160826;28;20079;-65
2022/11/08 10:33:31;;;;;;;18.37;11.67;;;12.00;99.90;;;;;;4161607;28;20124;-66
2022/11/08 10:35:54;;;;;;;20.53;11.97;;;11.90;99.90;;;;;;4160916;28;20095;-65
2022/11/08 10:37:58;;;;;;;21.83;11.87;;;12.00;99.90;;;;;;4162119;28;20283;-65
2022/11/08 10:40:10;;;;;;;22.30;12.70;;;12.00;99.90;;;;;;4160579;28;20033;-65
2022/11/08 10:42:33;;;;;;;19.77;11.97;;;12.00;99.90;;;;;;4161680;28;20064;-66
2022/11/08 10:44:35;;;;;;;20.03;11.23;;;12.00;99.90;;;;;;4160490;28;20117;-65
2022/11/08 10:46:49;;;;;;;20.87;11.77;;;12.00;99.90;;;;;;4160988;28;20045;-66
2022/11/08 10:48:50;;;;;;;23.00;12.60;;;12.00;99.90;;;;;;4159518;28;20099;-66